ADDS METAR Data INFO
IDs: Format: Raw Decoded Include TAF

Data at: 1930 UTC 19 Jul 2018

KCQM 191915Z AUTO 00000KT 10SM SCT100 26/13 A2984 RMK AO2 LTG DSNT W
KCQM 191855Z AUTO 17003KT 10SM SCT100 25/14 A2985 RMK AO2
KCQM 191835Z AUTO 15003KT 10SM SCT050 SCT110 25/14 A2985 RMK AO2
KCQM 191815Z AUTO 19006KT 10SM SCT055 SCT110 26/13 A2985 RMK AO2
KCQM 191755Z AUTO 00000KT 10SM SCT047 SCT055 25/14 A2986 RMK AO2 LTG DSNT NW
KCQM 191735Z AUTO 13003KT 10SM SCT047 25/14 A2986 RMK AO2
KCQM 191715Z AUTO 00000KT 10SM SCT047 24/14 A2987 RMK AO2
KCQM 191655Z AUTO 21003KT 10SM BKN047 23/14 A2987 RMK AO2
KCQM 191635Z AUTO 17004KT 10SM SCT045 24/14 A2987 RMK AO2
KCQM 191615Z AUTO 16004KT 10SM CLR 24/14 A2988 RMK AO2
KCQM 191555Z AUTO 15006KT 10SM SCT038 24/14 A2988 RMK AO2
KCQM 191535Z AUTO 16003KT 10SM SCT036 23/16 A2988 RMK AO2
KCQM 191515Z AUTO 13005KT 10SM SCT034 23/16 A2988 RMK AO2
KCQM 191455Z AUTO 18003KT 10SM CLR 23/15 A2989 RMK AO2
KCQM 191435Z AUTO 15007KT 10SM CLR 22/16 A2989 RMK AO2
KCQM 191415Z AUTO 16004KT 10SM CLR 22/16 A2989 RMK AO2
KCQM 191355Z AUTO 15005KT 10SM CLR 21/16 A2989 RMK AO2
KCQM 191336Z AUTO 15005KT 10SM CLR 20/16 A2989 RMK AO2
KCQM 191315Z AUTO 15005KT 10SM CLR 19/15 A2989 RMK AO2
KCQM 191255Z AUTO 16004KT 10SM CLR 18/15 A2990 RMK AO2
KCQM 191235Z AUTO 14004KT 10SM CLR 15/14 A2990 RMK AO2
KCQM 191215Z AUTO 00000KT 10SM CLR 14/13 A2990 RMK AO2
KCQM 191155Z AUTO 00000KT 10SM CLR 13/13 A2991 RMK AO2 LTG DSNT SW
KCQM 191135Z AUTO 00000KT 10SM CLR 13/13 A2991 RMK AO2
KCQM 191115Z AUTO 00000KT 10SM CLR 13/12 A2992 RMK AO2
KCQM 191055Z AUTO 00000KT 10SM CLR 12/12 A2992 RMK AO2
KCQM 191035Z AUTO 00000KT 10SM CLR 12/12 A2992 RMK AO2 LTG DSNT S
KCQM 191015Z AUTO 00000KT 10SM CLR 12/12 A2993 RMK AO2
KCQM 190955Z AUTO 00000KT 10SM CLR 12/12 A2993 RMK AO2
KCQM 190935Z AUTO 00000KT 10SM CLR 13/12 A2994 RMK AO2
KCQM 190915Z AUTO 00000KT 10SM CLR 13/12 A2994 RMK AO2
KCQM 190855Z AUTO 00000KT 10SM CLR 13/13 A2995 RMK AO2
KCQM 190835Z AUTO 00000KT 10SM CLR 13/13 A2995 RMK AO2
KCQM 190815Z AUTO 00000KT 10SM CLR 14/13 A2996 RMK AO2
KCQM 190755Z AUTO 00000KT 10SM CLR 14/13 A2995 RMK AO2
KCQM 190735Z AUTO 00000KT 10SM CLR 14/13 A2996 RMK AO2
KCQM 190715Z AUTO 00000KT 10SM CLR 14/14 A2996 RMK AO2
KCQM 190655Z AUTO 00000KT 10SM CLR 14/14 A2996 RMK AO2
KCQM 190635Z AUTO 00000KT 10SM CLR 15/14 A2996 RMK AO2
KCQM 190615Z AUTO 00000KT 10SM CLR 15/14 A2996 RMK AO2
KCQM 190555Z AUTO 00000KT 10SM CLR 15/14 A2997 RMK AO2
KCQM 190535Z AUTO 00000KT 10SM CLR 16/14 A2997 RMK AO2
KCQM 190515Z AUTO 00000KT 10SM CLR 16/14 A2998 RMK AO2
KCQM 190455Z AUTO 00000KT 10SM CLR 17/14 A2998 RMK AO2
KCQM 190435Z AUTO 00000KT 10SM CLR 16/15 A2997 RMK AO2
KCQM 190415Z AUTO 00000KT 10SM CLR 17/15 A2997 RMK AO2
KCQM 190355Z AUTO 00000KT 10SM CLR 17/15 A2997 RMK AO2
KCQM 190335Z AUTO 00000KT 10SM CLR 17/16 A2997 RMK AO2
KCQM 190315Z AUTO 00000KT 10SM CLR 17/16 A2997 RMK AO2
KCQM 190256Z AUTO 00000KT 10SM CLR 18/16 A2997 RMK AO2
KCQM 190235Z AUTO 00000KT 10SM CLR 18/16 A2997 RMK AO2
KCQM 190215Z AUTO 00000KT 10SM CLR 19/16 A2997 RMK AO2
KCQM 190155Z AUTO 00000KT 10SM CLR 20/16 A2996 RMK AO2
KCQM 190135Z AUTO 00000KT 10SM CLR 21/17 A2997 RMK AO2
KCQM 190115Z AUTO 00000KT 10SM CLR 22/17 A2997 RMK AO2
KCQM 190055Z AUTO 00000KT 10SM CLR 24/14 A2998 RMK AO2
KCQM 190035Z AUTO 24003KT 10SM CLR 25/14 A2998 RMK AO2
KCQM 190015Z AUTO 21003KT 10SM CLR 26/13 A2998 RMK AO2
KCQM 182355Z AUTO 23004KT 10SM CLR 26/13 A2999 RMK AO2
KCQM 182335Z AUTO 22006KT 10SM CLR 26/13 A3000 RMK AO2
KCQM 182315Z AUTO 23006KT 10SM CLR 26/13 A3000 RMK AO2
KCQM 182255Z AUTO 24005KT 10SM CLR 26/13 A3000 RMK AO2
KCQM 182235Z AUTO 23006KT 10SM CLR 26/13 A3001 RMK AO2
KCQM 182215Z AUTO 27004KT 10SM CLR 26/14 A3001 RMK AO2
KCQM 182155Z AUTO 22005KT 10SM CLR 27/13 A3002 RMK AO2
KCQM 182135Z AUTO 22003KT 10SM SCT050 26/13 A3002 RMK AO2
KCQM 182115Z AUTO 26004KT 10SM SCT050 26/13 A3003 RMK AO2
KCQM 182055Z AUTO 22006KT 10SM CLR 27/14 A3003 RMK AO2
KCQM 182035Z AUTO 23008KT 10SM CLR 26/13 A3004 RMK AO2
KCQM 182015Z AUTO 00000KT 10SM SCT100 26/13 A3004 RMK AO2
KCQM 181958Z AUTO 21006KT 10SM CLR 26/14 A3004 RMK AO2
KCQM 181935Z AUTO 24004KT 10SM CLR 26/13 A3004 RMK AO2
KCQM 181915Z AUTO 25003KT 10SM CLR 26/13 A3004 RMK AO2
KCQM 181855Z AUTO 18003KT 10SM CLR 26/14 A3005 RMK AO2
KCQM 181835Z AUTO 21005KT 10SM SCT046 25/14 A3006 RMK AO2
KCQM 181815Z AUTO 26004KT 10SM SCT046 25/13 A3006 RMK AO2
KCQM 181755Z AUTO 23005KT 10SM SCT046 24/14 A3007 RMK AO2
KCQM 181735Z AUTO 20004KT 10SM SCT044 24/14 A3007 RMK AO2
KCQM 181715Z AUTO 26005KT 10SM SCT042 SCT110 24/13 A3008 RMK AO2
KCQM 181655Z AUTO 25006KT 10SM SCT040 24/14 A3009 RMK AO2
KCQM 181635Z AUTO 20005KT 10SM SCT040 23/14 A3009 RMK AO2
KCQM 181615Z AUTO 22006KT 10SM CLR 23/13 A3010 RMK AO2
KCQM 181555Z AUTO 23007KT 10SM CLR 23/14 A3010 RMK AO2
KCQM 181547Z AUTO 22006KT 10SM CLR 23/14 A3010 RMK AO2
KCQM 181455Z AUTO 20006KT 10SM CLR 22/13 A3011 RMK AO2
KCQM 181415Z AUTO 21003KT 10SM CLR 21/13 A3011 RMK AO2
KCQM 181355Z AUTO 00000KT 10SM CLR 20/14 A3011 RMK AO2
KCQM 181335Z AUTO 00000KT 10SM CLR 18/14 A3012 RMK AO2
KCQM 181316Z AUTO 00000KT 10SM CLR 17/13 A3013 RMK AO2
KCQM 181255Z AUTO 00000KT 10SM CLR 16/13 A3013 RMK AO2
KCQM 181235Z AUTO 00000KT 10SM CLR 14/13 A3014 RMK AO2
KCQM 181215Z AUTO 00000KT 10SM CLR 12/12 A3014 RMK AO2
KCQM 181155Z AUTO 00000KT 10SM CLR 10/10 A3013 RMK AO2
KCQM 181135Z AUTO 00000KT 10SM CLR 09/09 A3013 RMK AO2
KCQM 181115Z AUTO 00000KT 10SM CLR 09/08 A3013 RMK AO2
KCQM 181055Z AUTO 00000KT 10SM CLR 09/08 A3012 RMK AO2
KCQM 181035Z AUTO 00000KT 10SM CLR 09/08 A3012 RMK AO2
KCQM 181015Z AUTO 00000KT 10SM CLR 09/08 A3012 RMK AO2
KCQM 180955Z AUTO 00000KT 10SM CLR 09/09 A3012 RMK AO2
KCQM 180935Z AUTO 00000KT 10SM CLR 09/09 A3012 RMK AO2
KCQM 180915Z AUTO 00000KT 10SM CLR 09/09 A3012 RMK AO2
KCQM 180913Z AUTO 00000KT 10SM CLR 09/09 A3012 RMK AO2
KCQM 180755Z AUTO 00000KT 10SM CLR 11/10 A3011 RMK AO2